sensor_id;sensor_type;location;lat;lon;timestamp;P1;durP1;ratioP1;P2;durP2;ratioP2
826;SDS011;395;48.132;11.608;2023-02-04T00:01:23;1.73;;;1.33;;
826;SDS011;395;48.132;11.608;2023-02-04T00:03:49;2.30;;;1.63;;
826;SDS011;395;48.132;11.608;2023-02-04T00:06:14;2.73;;;1.73;;
826;SDS011;395;48.132;11.608;2023-02-04T00:08:40;1.90;;;1.70;;
826;SDS011;395;48.132;11.608;2023-02-04T00:11:06;2.30;;;1.60;;
826;SDS011;395;48.132;11.608;2023-02-04T00:13:31;1.70;;;1.60;;
826;SDS011;395;48.132;11.608;2023-02-04T00:15:57;1.50;;;1.40;;
826;SDS011;395;48.132;11.608;2023-02-04T00:18:23;2.27;;;1.70;;
826;SDS011;395;48.132;11.608;2023-02-04T00:20:48;1.50;;;1.40;;
826;SDS011;395;48.132;11.608;2023-02-04T00:23:14;1.47;;;1.37;;
826;SDS011;395;48.132;11.608;2023-02-04T00:25:40;4.30;;;1.47;;
826;SDS011;395;48.132;11.608;2023-02-04T00:28:05;1.60;;;1.50;;
826;SDS011;395;48.132;11.608;2023-02-04T00:30:31;1.50;;;1.40;;
826;SDS011;395;48.132;11.608;2023-02-04T00:32:57;1.73;;;1.33;;
826;SDS011;395;48.132;11.608;2023-02-04T00:35:23;1.50;;;1.40;;
826;SDS011;395;48.132;11.608;2023-02-04T00:37:49;1.70;;;1.60;;
826;SDS011;395;48.132;11.608;2023-02-04T00:40:15;1.70;;;1.60;;
826;SDS011;395;48.132;11.608;2023-02-04T00:42:41;1.67;;;1.58;;
826;SDS011;395;48.132;11.608;2023-02-04T00:45:09;1.53;;;1.43;;
826;SDS011;395;48.132;11.608;2023-02-04T00:47:35;1.95;;;1.85;;
826;SDS011;395;48.132;11.608;2023-02-04T00:50:01;1.80;;;1.67;;
826;SDS011;395;48.132;11.608;2023-02-04T00:52:27;1.95;;;1.45;;
826;SDS011;395;48.132;11.608;2023-02-04T00:54:53;1.77;;;1.40;;
826;SDS011;395;48.132;11.608;2023-02-04T00:57:18;1.50;;;1.40;;
826;SDS011;395;48.132;11.608;2023-02-04T00:59:44;1.73;;;1.40;;
826;SDS011;395;48.132;11.608;2023-02-04T01:02:09;1.97;;;1.83;;
826;SDS011;395;48.132;11.608;2023-02-04T01:04:35;1.40;;;1.30;;
826;SDS011;395;48.132;11.608;2023-02-04T01:07:01;1.30;;;1.20;;
826;SDS011;395;48.132;11.608;2023-02-04T01:09:26;1.77;;;1.67;;
826;SDS011;395;48.132;11.608;2023-02-04T01:11:52;1.80;;;1.37;;
826;SDS011;395;48.132;11.608;2023-02-04T01:14:18;1.50;;;1.40;;
826;SDS011;395;48.132;11.608;2023-02-04T01:16:44;1.50;;;1.40;;
826;SDS011;395;48.132;11.608;2023-02-04T01:19:10;0.93;;;0.83;;
826;SDS011;395;48.132;11.608;2023-02-04T01:21:36;1.20;;;1.10;;
826;SDS011;395;48.132;11.608;2023-02-04T01:24:02;1.25;;;1.10;;
826;SDS011;395;48.132;11.608;2023-02-04T01:26:27;1.47;;;1.37;;
826;SDS011;395;48.132;11.608;2023-02-04T01:28:53;1.17;;;1.00;;
826;SDS011;395;48.132;11.608;2023-02-04T01:31:19;1.30;;;0.90;;
826;SDS011;395;48.132;11.608;2023-02-04T01:33:44;1.30;;;1.10;;
826;SDS011;395;48.132;11.608;2023-02-04T01:36:10;1.67;;;1.57;;
826;SDS011;395;48.132;11.608;2023-02-04T01:38:36;1.10;;;0.87;;
826;SDS011;395;48.132;11.608;2023-02-04T01:41:01;1.47;;;0.90;;
826;SDS011;395;48.132;11.608;2023-02-04T01:43:28;1.00;;;0.90;;
826;SDS011;395;48.132;11.608;2023-02-04T01:45:54;1.27;;;0.90;;
826;SDS011;395;48.132;11.608;2023-02-04T01:48:20;2.10;;;1.10;;
826;SDS011;395;48.132;11.608;2023-02-04T01:50:47;1.27;;;1.00;;
826;SDS011;395;48.132;11.608;2023-02-04T01:53:15;2.40;;;1.20;;
826;SDS011;395;48.132;11.608;2023-02-04T01:55:47;1.35;;;1.23;;
826;SDS011;395;48.132;11.608;2023-02-04T01:58:13;2.75;;;1.20;;
826;SDS011;395;48.132;11.608;2023-02-04T02:00:40;2.25;;;1.50;;
826;SDS011;395;48.132;11.608;2023-02-04T02:03:07;2.65;;;1.20;;
826;SDS011;395;48.132;11.608;2023-02-04T02:08:03;1.42;;;1.00;;
826;SDS011;395;48.132;11.608;2023-02-04T02:10:30;1.38;;;0.80;;
826;SDS011;395;48.132;11.608;2023-02-04T02:12:56;2.20;;;1.27;;
826;SDS011;395;48.132;11.608;2023-02-04T02:15:22;2.20;;;1.17;;
826;SDS011;395;48.132;11.608;2023-02-04T02:17:49;1.88;;;1.08;;
826;SDS011;395;48.132;11.608;2023-02-04T02:20:17;2.95;;;1.40;;
826;SDS011;395;48.132;11.608;2023-02-04T02:25:45;1.60;;;1.33;;
826;SDS011;395;48.132;11.608;2023-02-04T02:28:12;1.70;;;1.38;;
826;SDS011;395;48.132;11.608;2023-02-04T02:30:40;2.63;;;1.40;;
826;SDS011;395;48.132;11.608;2023-02-04T02:33:09;2.40;;;1.60;;
826;SDS011;395;48.132;11.608;2023-02-04T02:35:40;2.95;;;1.38;;
826;SDS011;395;48.132;11.608;2023-02-04T02:38:10;2.67;;;1.50;;
826;SDS011;395;48.132;11.608;2023-02-04T02:40:36;4.50;;;1.77;;
826;SDS011;395;48.132;11.608;2023-02-04T02:43:02;2.58;;;1.33;;
826;SDS011;395;48.132;11.608;2023-02-04T02:45:30;2.83;;;1.25;;
826;SDS011;395;48.132;11.608;2023-02-04T02:47:57;3.90;;;2.05;;
826;SDS011;395;48.132;11.608;2023-02-04T02:50:26;4.97;;;2.85;;
826;SDS011;395;48.132;11.608;2023-02-04T02:52:54;5.18;;;2.25;;
826;SDS011;395;48.132;11.608;2023-02-04T02:55:21;4.20;;;1.95;;
826;SDS011;395;48.132;11.608;2023-02-04T02:57:49;8.63;;;1.98;;
826;SDS011;395;48.132;11.608;2023-02-04T03:00:26;4.22;;;2.45;;
826;SDS011;395;48.132;11.608;2023-02-04T03:02:55;7.38;;;2.30;;
826;SDS011;395;48.132;11.608;2023-02-04T03:05:46;5.15;;;2.47;;
826;SDS011;395;48.132;11.608;2023-02-04T03:08:15;7.57;;;1.90;;
826;SDS011;395;48.132;11.608;2023-02-04T03:10:41;11.77;;;2.60;;
826;SDS011;395;48.132;11.608;2023-02-04T03:13:08;7.30;;;2.70;;
826;SDS011;395;48.132;11.608;2023-02-04T03:15:35;9.27;;;3.53;;
826;SDS011;395;48.132;11.608;2023-02-04T03:18:01;5.00;;;2.53;;
826;SDS011;395;48.132;11.608;2023-02-04T03:20:27;7.03;;;2.47;;
826;SDS011;395;48.132;11.608;2023-02-04T03:22:55;7.13;;;3.63;;
826;SDS011;395;48.132;11.608;2023-02-04T03:25:22;8.77;;;3.00;;
826;SDS011;395;48.132;11.608;2023-02-04T03:27:51;8.35;;;2.85;;
826;SDS011;395;48.132;11.608;2023-02-04T03:30:18;8.95;;;2.35;;
826;SDS011;395;48.132;11.608;2023-02-04T03:32:47;7.90;;;3.20;;
826;SDS011;395;48.132;11.608;2023-02-04T03:35:13;6.33;;;2.93;;
826;SDS011;395;48.132;11.608;2023-02-04T03:37:39;9.00;;;2.23;;
826;SDS011;395;48.132;11.608;2023-02-04T03:40:05;6.63;;;2.90;;
826;SDS011;395;48.132;11.608;2023-02-04T03:42:31;10.48;;;3.40;;
826;SDS011;395;48.132;11.608;2023-02-04T03:44:56;8.37;;;2.60;;
826;SDS011;395;48.132;11.608;2023-02-04T03:47:22;4.50;;;3.33;;
826;SDS011;395;48.132;11.608;2023-02-04T03:49:48;10.83;;;3.30;;
826;SDS011;395;48.132;11.608;2023-02-04T03:52:13;6.97;;;3.20;;
826;SDS011;395;48.132;11.608;2023-02-04T03:54:39;6.73;;;3.07;;
826;SDS011;395;48.132;11.608;2023-02-04T03:57:05;8.47;;;2.97;;
826;SDS011;395;48.132;11.608;2023-02-04T03:59:30;7.93;;;3.53;;
826;SDS011;395;48.132;11.608;2023-02-04T04:01:56;6.67;;;2.57;;
826;SDS011;395;48.132;11.608;2023-02-04T04:04:22;9.40;;;3.10;;
826;SDS011;395;48.132;11.608;2023-02-04T04:06:48;5.57;;;3.20;;
826;SDS011;395;48.132;11.608;2023-02-04T04:09:13;9.13;;;2.80;;
826;SDS011;395;48.132;11.608;2023-02-04T04:11:39;9.93;;;3.17;;
826;SDS011;395;48.132;11.608;2023-02-04T04:14:04;5.63;;;3.00;;
826;SDS011;395;48.132;11.608;2023-02-04T04:16:30;5.20;;;2.83;;
826;SDS011;395;48.132;11.608;2023-02-04T04:18:56;6.70;;;2.67;;
826;SDS011;395;48.132;11.608;2023-02-04T04:21:21;8.70;;;3.87;;
826;SDS011;395;48.132;11.608;2023-02-04T04:23:47;11.23;;;3.40;;
826;SDS011;395;48.132;11.608;2023-02-04T04:26:13;10.50;;;2.77;;
826;SDS011;395;48.132;11.608;2023-02-04T04:28:38;7.07;;;2.37;;
826;SDS011;395;48.132;11.608;2023-02-04T04:31:04;7.67;;;2.60;;
826;SDS011;395;48.132;11.608;2023-02-04T04:33:29;6.40;;;2.33;;
826;SDS011;395;48.132;11.608;2023-02-04T04:35:55;10.53;;;3.07;;
826;SDS011;395;48.132;11.608;2023-02-04T04:38:21;5.60;;;3.00;;
826;SDS011;395;48.132;11.608;2023-02-04T04:40:46;4.70;;;2.27;;
826;SDS011;395;48.132;11.608;2023-02-04T04:43:12;7.40;;;2.40;;
826;SDS011;395;48.132;11.608;2023-02-04T04:45:38;11.70;;;3.20;;
826;SDS011;395;48.132;11.608;2023-02-04T04:48:03;5.90;;;2.70;;
826;SDS011;395;48.132;11.608;2023-02-04T04:50:29;4.90;;;2.43;;
826;SDS011;395;48.132;11.608;2023-02-04T04:52:55;9.23;;;3.47;;
826;SDS011;395;48.132;11.608;2023-02-04T04:55:20;8.90;;;2.87;;
826;SDS011;395;48.132;11.608;2023-02-04T04:57:46;8.87;;;2.93;;
826;SDS011;395;48.132;11.608;2023-02-04T05:00:15;6.20;;;2.67;;
826;SDS011;395;48.132;11.608;2023-02-04T05:02:43;8.77;;;2.83;;
826;SDS011;395;48.132;11.608;2023-02-04T05:05:09;10.47;;;2.70;;
826;SDS011;395;48.132;11.608;2023-02-04T05:07:35;7.38;;;2.67;;
826;SDS011;395;48.132;11.608;2023-02-04T05:10:01;8.90;;;3.33;;
826;SDS011;395;48.132;11.608;2023-02-04T05:12:27;7.15;;;2.63;;
826;SDS011;395;48.132;11.608;2023-02-04T05:14:53;7.03;;;3.20;;
826;SDS011;395;48.132;11.608;2023-02-04T05:17:18;7.30;;;3.20;;
826;SDS011;395;48.132;11.608;2023-02-04T05:19:44;6.30;;;2.60;;
826;SDS011;395;48.132;11.608;2023-02-04T05:22:10;9.73;;;2.90;;
826;SDS011;395;48.132;11.608;2023-02-04T05:24:35;7.33;;;3.10;;
826;SDS011;395;48.132;11.608;2023-02-04T05:27:01;7.13;;;2.37;;
826;SDS011;395;48.132;11.608;2023-02-04T05:29:27;6.33;;;2.30;;
826;SDS011;395;48.132;11.608;2023-02-04T05:31:52;9.60;;;2.70;;
826;SDS011;395;48.132;11.608;2023-02-04T05:34:18;5.70;;;2.30;;
826;SDS011;395;48.132;11.608;2023-02-04T05:36:43;4.97;;;2.83;;
826;SDS011;395;48.132;11.608;2023-02-04T05:39:09;4.73;;;2.10;;
826;SDS011;395;48.132;11.608;2023-02-04T05:41:35;5.83;;;2.57;;
826;SDS011;395;48.132;11.608;2023-02-04T05:44:01;8.47;;;3.10;;
826;SDS011;395;48.132;11.608;2023-02-04T05:46:26;8.40;;;3.30;;
826;SDS011;395;48.132;11.608;2023-02-04T05:48:52;9.33;;;2.67;;
826;SDS011;395;48.132;11.608;2023-02-04T05:51:17;8.90;;;2.60;;
826;SDS011;395;48.132;11.608;2023-02-04T05:53:43;7.90;;;2.77;;
826;SDS011;395;48.132;11.608;2023-02-04T05:56:09;4.00;;;2.20;;
826;SDS011;395;48.132;11.608;2023-02-04T05:58:34;6.63;;;2.57;;
826;SDS011;395;48.132;11.608;2023-02-04T06:01:00;11.73;;;2.90;;
826;SDS011;395;48.132;11.608;2023-02-04T06:03:27;6.88;;;2.15;;
826;SDS011;395;48.132;11.608;2023-02-04T06:05:54;6.20;;;2.75;;
826;SDS011;395;48.132;11.608;2023-02-04T06:08:20;7.03;;;2.90;;
826;SDS011;395;48.132;11.608;2023-02-04T06:10:46;5.45;;;2.58;;
826;SDS011;395;48.132;11.608;2023-02-04T06:13:12;7.70;;;2.77;;
826;SDS011;395;48.132;11.608;2023-02-04T06:15:38;7.53;;;2.57;;
826;SDS011;395;48.132;11.608;2023-02-04T06:18:03;7.43;;;4.10;;
826;SDS011;395;48.132;11.608;2023-02-04T06:20:29;9.57;;;2.90;;
826;SDS011;395;48.132;11.608;2023-02-04T06:22:55;7.03;;;2.70;;
826;SDS011;395;48.132;11.608;2023-02-04T06:25:21;11.97;;;2.97;;
826;SDS011;395;48.132;11.608;2023-02-04T06:27:47;7.63;;;2.38;;
826;SDS011;395;48.132;11.608;2023-02-04T06:32:38;10.20;;;2.88;;
826;SDS011;395;48.132;11.608;2023-02-04T06:35:04;10.90;;;2.90;;
826;SDS011;395;48.132;11.608;2023-02-04T06:37:30;6.88;;;2.33;;
826;SDS011;395;48.132;11.608;2023-02-04T06:39:56;9.13;;;2.30;;
826;SDS011;395;48.132;11.608;2023-02-04T06:42:24;7.90;;;3.17;;
826;SDS011;395;48.132;11.608;2023-02-04T06:44:50;7.70;;;3.22;;
826;SDS011;395;48.132;11.608;2023-02-04T06:47:16;8.63;;;3.70;;
826;SDS011;395;48.132;11.608;2023-02-04T06:49:43;5.55;;;2.30;;
826;SDS011;395;48.132;11.608;2023-02-04T06:52:08;13.73;;;3.40;;
826;SDS011;395;48.132;11.608;2023-02-04T06:54:34;7.70;;;2.80;;
826;SDS011;395;48.132;11.608;2023-02-04T06:57:00;4.37;;;2.20;;
826;SDS011;395;48.132;11.608;2023-02-04T06:59:37;5.80;;;2.55;;
826;SDS011;395;48.132;11.608;2023-02-04T07:02:04;7.88;;;2.80;;
826;SDS011;395;48.132;11.608;2023-02-04T07:04:31;11.20;;;3.00;;
826;SDS011;395;48.132;11.608;2023-02-04T07:06:57;5.95;;;2.80;;
826;SDS011;395;48.132;11.608;2023-02-04T07:09:24;4.72;;;2.40;;
826;SDS011;395;48.132;11.608;2023-02-04T07:11:50;6.72;;;3.03;;
826;SDS011;395;48.132;11.608;2023-02-04T07:14:15;7.10;;;2.90;;
826;SDS011;395;48.132;11.608;2023-02-04T07:16:42;5.97;;;2.75;;
826;SDS011;395;48.132;11.608;2023-02-04T07:19:08;8.83;;;2.93;;
826;SDS011;395;48.132;11.608;2023-02-04T07:21:34;7.57;;;2.90;;
826;SDS011;395;48.132;11.608;2023-02-04T07:23:59;6.97;;;2.53;;
826;SDS011;395;48.132;11.608;2023-02-04T07:26:25;7.70;;;2.90;;
826;SDS011;395;48.132;11.608;2023-02-04T07:28:50;6.23;;;2.30;;
826;SDS011;395;48.132;11.608;2023-02-04T07:31:16;6.93;;;2.17;;
826;SDS011;395;48.132;11.608;2023-02-04T07:33:42;6.97;;;2.43;;
826;SDS011;395;48.132;11.608;2023-02-04T07:36:07;9.90;;;3.10;;
826;SDS011;395;48.132;11.608;2023-02-04T07:38:33;4.97;;;2.73;;
826;SDS011;395;48.132;11.608;2023-02-04T07:40:59;6.03;;;2.60;;
826;SDS011;395;48.132;11.608;2023-02-04T07:43:24;9.63;;;3.07;;
826;SDS011;395;48.132;11.608;2023-02-04T07:45:50;8.63;;;2.83;;
826;SDS011;395;48.132;11.608;2023-02-04T07:48:16;4.03;;;2.63;;
826;SDS011;395;48.132;11.608;2023-02-04T07:50:41;10.10;;;2.90;;
826;SDS011;395;48.132;11.608;2023-02-04T07:53:07;9.53;;;2.70;;
826;SDS011;395;48.132;11.608;2023-02-04T07:55:32;8.27;;;2.97;;
826;SDS011;395;48.132;11.608;2023-02-04T07:57:58;9.60;;;4.47;;
826;SDS011;395;48.132;11.608;2023-02-04T08:00:24;6.43;;;2.57;;
826;SDS011;395;48.132;11.608;2023-02-04T08:02:49;6.90;;;2.57;;
826;SDS011;395;48.132;11.608;2023-02-04T08:05:15;6.17;;;2.73;;
826;SDS011;395;48.132;11.608;2023-02-04T08:07:41;5.40;;;2.63;;
826;SDS011;395;48.132;11.608;2023-02-04T08:10:07;7.33;;;2.67;;
826;SDS011;395;48.132;11.608;2023-02-04T08:12:34;9.68;;;2.63;;
826;SDS011;395;48.132;11.608;2023-02-04T08:14:59;10.83;;;3.37;;
826;SDS011;395;48.132;11.608;2023-02-04T08:17:25;6.23;;;2.47;;
826;SDS011;395;48.132;11.608;2023-02-04T08:19:51;8.38;;;2.55;;
826;SDS011;395;48.132;11.608;2023-02-04T08:22:17;6.30;;;2.30;;
826;SDS011;395;48.132;11.608;2023-02-04T08:24:43;10.23;;;2.60;;
826;SDS011;395;48.132;11.608;2023-02-04T08:27:09;8.27;;;2.70;;
826;SDS011;395;48.132;11.608;2023-02-04T08:29:34;7.27;;;2.70;;
826;SDS011;395;48.132;11.608;2023-02-04T08:32:00;6.10;;;2.00;;
826;SDS011;395;48.132;11.608;2023-02-04T08:34:26;10.97;;;2.40;;
826;SDS011;395;48.132;11.608;2023-02-04T08:36:52;6.70;;;2.53;;
826;SDS011;395;48.132;11.608;2023-02-04T08:39:17;8.03;;;2.43;;
826;SDS011;395;48.132;11.608;2023-02-04T08:41:43;6.77;;;1.90;;
826;SDS011;395;48.132;11.608;2023-02-04T08:44:09;4.53;;;2.43;;
826;SDS011;395;48.132;11.608;2023-02-04T08:46:34;7.93;;;2.53;;
826;SDS011;395;48.132;11.608;2023-02-04T08:49:00;11.00;;;2.57;;
826;SDS011;395;48.132;11.608;2023-02-04T08:51:26;7.73;;;2.30;;
826;SDS011;395;48.132;11.608;2023-02-04T08:53:51;8.40;;;2.67;;
826;SDS011;395;48.132;11.608;2023-02-04T08:56:17;5.37;;;2.50;;
826;SDS011;395;48.132;11.608;2023-02-04T08:58:44;5.45;;;2.38;;
826;SDS011;395;48.132;11.608;2023-02-04T09:01:10;3.85;;;2.40;;
826;SDS011;395;48.132;11.608;2023-02-04T09:03:36;6.43;;;2.43;;
826;SDS011;395;48.132;11.608;2023-02-04T09:06:03;7.13;;;2.20;;
826;SDS011;395;48.132;11.608;2023-02-04T09:08:30;7.70;;;2.30;;
826;SDS011;395;48.132;11.608;2023-02-04T09:10:55;4.13;;;2.57;;
826;SDS011;395;48.132;11.608;2023-02-04T09:13:21;10.47;;;2.67;;
826;SDS011;395;48.132;11.608;2023-02-04T09:15:46;5.00;;;2.20;;
826;SDS011;395;48.132;11.608;2023-02-04T09:18:12;6.03;;;2.57;;
826;SDS011;395;48.132;11.608;2023-02-04T09:20:43;6.05;;;2.85;;
826;SDS011;395;48.132;11.608;2023-02-04T09:23:09;6.13;;;2.25;;
826;SDS011;395;48.132;11.608;2023-02-04T09:25:39;5.35;;;1.92;;
826;SDS011;395;48.132;11.608;2023-02-04T09:28:06;9.30;;;2.80;;
826;SDS011;395;48.132;11.608;2023-02-04T09:30:36;6.97;;;2.22;;
826;SDS011;395;48.132;11.608;2023-02-04T09:33:03;6.47;;;2.35;;
826;SDS011;395;48.132;11.608;2023-02-04T09:35:28;4.97;;;2.40;;
826;SDS011;395;48.132;11.608;2023-02-04T09:37:54;5.70;;;2.23;;
826;SDS011;395;48.132;11.608;2023-02-04T09:40:20;7.57;;;2.40;;
826;SDS011;395;48.132;11.608;2023-02-04T09:42:47;2.72;;;1.92;;
826;SDS011;395;48.132;11.608;2023-02-04T09:45:18;3.38;;;1.33;;
826;SDS011;395;48.132;11.608;2023-02-04T09:47:48;5.72;;;2.30;;
826;SDS011;395;48.132;11.608;2023-02-04T09:50:15;8.68;;;2.20;;
826;SDS011;395;48.132;11.608;2023-02-04T09:52:43;4.20;;;2.03;;
826;SDS011;395;48.132;11.608;2023-02-04T09:55:16;4.60;;;1.90;;
826;SDS011;395;48.132;11.608;2023-02-04T09:57:44;5.35;;;2.38;;
826;SDS011;395;48.132;11.608;2023-02-04T10:00:13;7.53;;;2.08;;
826;SDS011;395;48.132;11.608;2023-02-04T10:02:49;6.18;;;1.98;;
826;SDS011;395;48.132;11.608;2023-02-04T10:05:16;2.93;;;2.10;;
826;SDS011;395;48.132;11.608;2023-02-04T10:07:44;5.03;;;2.30;;
826;SDS011;395;48.132;11.608;2023-02-04T10:10:17;6.15;;;3.05;;
826;SDS011;395;48.132;11.608;2023-02-04T10:12:49;5.22;;;2.42;;
826;SDS011;395;48.132;11.608;2023-02-04T10:15:18;5.03;;;2.05;;
826;SDS011;395;48.132;11.608;2023-02-04T10:17:46;7.00;;;2.55;;
826;SDS011;395;48.132;11.608;2023-02-04T10:20:15;7.97;;;2.42;;
826;SDS011;395;48.132;11.608;2023-02-04T10:22:47;3.92;;;1.88;;
826;SDS011;395;48.132;11.608;2023-02-04T10:25:14;4.90;;;1.73;;
826;SDS011;395;48.132;11.608;2023-02-04T10:30:28;3.28;;;1.25;;
826;SDS011;395;48.132;11.608;2023-02-04T10:32:59;1.63;;;1.10;;
826;SDS011;395;48.132;11.608;2023-02-04T10:35:44;2.22;;;1.20;;
826;SDS011;395;48.132;11.608;2023-02-04T10:38:14;1.15;;;0.90;;
826;SDS011;395;48.132;11.608;2023-02-04T10:40:40;1.77;;;1.17;;
826;SDS011;395;48.132;11.608;2023-02-04T10:43:09;4.15;;;1.10;;
826;SDS011;395;48.132;11.608;2023-02-04T10:45:42;1.52;;;1.05;;
826;SDS011;395;48.132;11.608;2023-02-04T10:48:17;2.72;;;1.42;;
826;SDS011;395;48.132;11.608;2023-02-04T10:50:44;0.85;;;0.85;;
826;SDS011;395;48.132;11.608;2023-02-04T10:53:11;1.45;;;0.77;;
826;SDS011;395;48.132;11.608;2023-02-04T10:56:01;1.52;;;1.30;;
826;SDS011;395;48.132;11.608;2023-02-04T10:58:29;1.70;;;0.70;;
826;SDS011;395;48.132;11.608;2023-02-04T11:00:55;2.80;;;1.20;;
826;SDS011;395;48.132;11.608;2023-02-04T11:03:22;2.28;;;1.02;;
826;SDS011;395;48.132;11.608;2023-02-04T11:05:48;2.83;;;1.50;;
826;SDS011;395;48.132;11.608;2023-02-04T11:08:19;2.77;;;1.30;;
826;SDS011;395;48.132;11.608;2023-02-04T11:10:59;1.48;;;0.90;;
826;SDS011;395;48.132;11.608;2023-02-04T11:13:40;0.95;;;0.70;;
826;SDS011;395;48.132;11.608;2023-02-04T11:19:29;1.50;;;0.80;;
826;SDS011;395;48.132;11.608;2023-02-04T11:26:39;2.90;;;1.30;;
826;SDS011;395;48.132;11.608;2023-02-04T11:32:03;2.42;;;1.15;;
826;SDS011;395;48.132;11.608;2023-02-04T11:34:48;3.05;;;1.33;;
826;SDS011;395;48.132;11.608;2023-02-04T11:39:51;1.38;;;0.88;;
826;SDS011;395;48.132;11.608;2023-02-04T11:44:52;1.40;;;0.90;;
826;SDS011;395;48.132;11.608;2023-02-04T11:47:23;1.30;;;0.95;;
826;SDS011;395;48.132;11.608;2023-02-04T11:49:54;2.08;;;1.30;;
826;SDS011;395;48.132;11.608;2023-02-04T11:52:23;1.25;;;0.65;;
826;SDS011;395;48.132;11.608;2023-02-04T11:54:58;3.10;;;1.10;;
826;SDS011;395;48.132;11.608;2023-02-04T11:57:24;2.70;;;1.60;;
826;SDS011;395;48.132;11.608;2023-02-04T11:59:51;3.13;;;1.73;;
826;SDS011;395;48.132;11.608;2023-02-04T12:02:19;1.90;;;1.60;;
826;SDS011;395;48.132;11.608;2023-02-04T12:04:52;1.70;;;1.40;;
826;SDS011;395;48.132;11.608;2023-02-04T12:07:23;2.40;;;1.50;;
826;SDS011;395;48.132;11.608;2023-02-04T12:09:50;2.88;;;1.60;;
826;SDS011;395;48.132;11.608;2023-02-04T12:12:23;1.97;;;1.63;;
826;SDS011;395;48.132;11.608;2023-02-04T12:14:58;4.03;;;1.55;;
826;SDS011;395;48.132;11.608;2023-02-04T12:17:27;1.85;;;1.65;;
826;SDS011;395;48.132;11.608;2023-02-04T12:19:52;1.60;;;1.50;;
826;SDS011;395;48.132;11.608;2023-02-04T12:22:18;1.93;;;1.73;;
826;SDS011;395;48.132;11.608;2023-02-04T12:24:44;3.53;;;1.87;;
826;SDS011;395;48.132;11.608;2023-02-04T12:27:09;1.77;;;1.67;;
826;SDS011;395;48.132;11.608;2023-02-04T12:29:35;2.07;;;1.60;;
826;SDS011;395;48.132;11.608;2023-02-04T12:32:00;3.70;;;1.87;;
826;SDS011;395;48.132;11.608;2023-02-04T12:34:26;1.97;;;1.77;;
826;SDS011;395;48.132;11.608;2023-02-04T12:36:52;2.10;;;1.88;;
826;SDS011;395;48.132;11.608;2023-02-04T12:39:18;3.40;;;2.73;;
826;SDS011;395;48.132;11.608;2023-02-04T12:41:44;3.00;;;2.33;;
826;SDS011;395;48.132;11.608;2023-02-04T12:44:10;4.37;;;2.33;;
826;SDS011;395;48.132;11.608;2023-02-04T12:46:35;3.13;;;2.10;;
826;SDS011;395;48.132;11.608;2023-02-04T12:49:01;2.40;;;2.20;;
826;SDS011;395;48.132;11.608;2023-02-04T12:51:26;2.60;;;1.50;;
826;SDS011;395;48.132;11.608;2023-02-04T12:53:52;2.33;;;2.10;;
826;SDS011;395;48.132;11.608;2023-02-04T12:56:18;3.87;;;2.07;;
826;SDS011;395;48.132;11.608;2023-02-04T12:58:44;2.05;;;1.95;;
826;SDS011;395;48.132;11.608;2023-02-04T13:01:10;2.33;;;2.03;;
826;SDS011;395;48.132;11.608;2023-02-04T13:03:36;3.50;;;2.80;;
826;SDS011;395;48.132;11.608;2023-02-04T13:06:01;1.93;;;1.50;;
826;SDS011;395;48.132;11.608;2023-02-04T13:08:27;3.20;;;2.00;;
826;SDS011;395;48.132;11.608;2023-02-04T13:10:53;1.80;;;1.70;;
826;SDS011;395;48.132;11.608;2023-02-04T13:13:19;3.45;;;2.03;;
826;SDS011;395;48.132;11.608;2023-02-04T13:15:46;3.42;;;1.75;;
826;SDS011;395;48.132;11.608;2023-02-04T13:18:12;3.03;;;2.20;;
826;SDS011;395;48.132;11.608;2023-02-04T13:20:39;2.55;;;1.63;;
826;SDS011;395;48.132;11.608;2023-02-04T13:23:05;3.13;;;1.50;;
826;SDS011;395;48.132;11.608;2023-02-04T13:25:31;1.23;;;1.17;;
826;SDS011;395;48.132;11.608;2023-02-04T13:27:56;1.63;;;1.20;;
826;SDS011;395;48.132;11.608;2023-02-04T13:30:22;2.30;;;1.90;;
826;SDS011;395;48.132;11.608;2023-02-04T13:32:48;2.30;;;2.07;;
826;SDS011;395;48.132;11.608;2023-02-04T13:35:13;1.90;;;1.70;;
826;SDS011;395;48.132;11.608;2023-02-04T13:37:39;1.90;;;1.77;;
826;SDS011;395;48.132;11.608;2023-02-04T13:40:05;4.00;;;2.00;;
826;SDS011;395;48.132;11.608;2023-02-04T13:42:32;1.90;;;1.80;;
826;SDS011;395;48.132;11.608;2023-02-04T13:44:57;2.40;;;2.20;;
826;SDS011;395;48.132;11.608;2023-02-04T13:47:23;3.10;;;2.30;;
826;SDS011;395;48.132;11.608;2023-02-04T13:49:49;2.23;;;2.00;;
826;SDS011;395;48.132;11.608;2023-02-04T13:52:15;2.57;;;2.10;;
826;SDS011;395;48.132;11.608;2023-02-04T13:54:42;1.58;;;1.48;;
826;SDS011;395;48.132;11.608;2023-02-04T13:57:08;2.53;;;1.88;;
826;SDS011;395;48.132;11.608;2023-02-04T13:59:34;1.50;;;1.40;;
826;SDS011;395;48.132;11.608;2023-02-04T14:01:59;1.87;;;1.23;;
826;SDS011;395;48.132;11.608;2023-02-04T14:04:26;6.70;;;1.80;;
826;SDS011;395;48.132;11.608;2023-02-04T14:06:51;6.57;;;3.30;;
826;SDS011;395;48.132;11.608;2023-02-04T14:09:19;1.90;;;1.60;;
826;SDS011;395;48.132;11.608;2023-02-04T14:11:45;2.75;;;1.50;;
826;SDS011;395;48.132;11.608;2023-02-04T14:14:11;2.30;;;1.40;;
826;SDS011;395;48.132;11.608;2023-02-04T14:16:37;2.00;;;1.77;;
826;SDS011;395;48.132;11.608;2023-02-04T14:19:03;5.40;;;2.40;;
826;SDS011;395;48.132;11.608;2023-02-04T14:21:29;3.63;;;2.00;;
826;SDS011;395;48.132;11.608;2023-02-04T14:23:55;1.47;;;1.30;;
826;SDS011;395;48.132;11.608;2023-02-04T14:26:21;1.50;;;1.10;;
826;SDS011;395;48.132;11.608;2023-02-04T14:28:47;2.47;;;1.10;;
826;SDS011;395;48.132;11.608;2023-02-04T14:31:12;1.17;;;1.07;;
826;SDS011;395;48.132;11.608;2023-02-04T14:33:38;0.93;;;0.90;;
826;SDS011;395;48.132;11.608;2023-02-04T14:36:03;2.27;;;1.30;;
826;SDS011;395;48.132;11.608;2023-02-04T14:38:29;2.50;;;1.23;;
826;SDS011;395;48.132;11.608;2023-02-04T14:40:56;2.50;;;1.30;;
826;SDS011;395;48.132;11.608;2023-02-04T14:43:22;1.55;;;1.33;;
826;SDS011;395;48.132;11.608;2023-02-04T14:45:48;1.63;;;1.40;;
826;SDS011;395;48.132;11.608;2023-02-04T14:48:14;3.57;;;1.90;;
826;SDS011;395;48.132;11.608;2023-02-04T14:50:39;1.47;;;1.20;;
826;SDS011;395;48.132;11.608;2023-02-04T14:53:05;1.70;;;1.60;;
826;SDS011;395;48.132;11.608;2023-02-04T14:55:31;1.40;;;1.30;;
826;SDS011;395;48.132;11.608;2023-02-04T14:57:56;1.63;;;1.40;;
826;SDS011;395;48.132;11.608;2023-02-04T15:00:22;3.43;;;1.60;;
826;SDS011;395;48.132;11.608;2023-02-04T15:02:48;1.73;;;1.63;;
826;SDS011;395;48.132;11.608;2023-02-04T15:05:13;1.33;;;1.10;;
826;SDS011;395;48.132;11.608;2023-02-04T15:07:39;1.27;;;1.17;;
826;SDS011;395;48.132;11.608;2023-02-04T15:10:05;1.70;;;1.60;;
826;SDS011;395;48.132;11.608;2023-02-04T15:12:32;1.45;;;1.30;;
826;SDS011;395;48.132;11.608;2023-02-04T15:14:58;1.60;;;1.37;;
826;SDS011;395;48.132;11.608;2023-02-04T15:17:23;1.57;;;1.47;;
826;SDS011;395;48.132;11.608;2023-02-04T15:19:49;1.37;;;1.27;;
826;SDS011;395;48.132;11.608;2023-02-04T15:22:14;1.30;;;1.20;;
826;SDS011;395;48.132;11.608;2023-02-04T15:24:40;1.50;;;1.40;;
826;SDS011;395;48.132;11.608;2023-02-04T15:27:06;2.00;;;1.90;;
826;SDS011;395;48.132;11.608;2023-02-04T15:29:31;1.37;;;1.27;;
826;SDS011;395;48.132;11.608;2023-02-04T15:31:57;1.40;;;1.00;;
826;SDS011;395;48.132;11.608;2023-02-04T15:34:23;2.57;;;1.30;;
826;SDS011;395;48.132;11.608;2023-02-04T15:36:49;1.43;;;1.33;;
826;SDS011;395;48.132;11.608;2023-02-04T15:39:14;1.63;;;1.50;;
826;SDS011;395;48.132;11.608;2023-02-04T15:41:40;1.63;;;1.53;;
826;SDS011;395;48.132;11.608;2023-02-04T15:44:05;1.90;;;1.43;;
826;SDS011;395;48.132;11.608;2023-02-04T15:46:31;1.60;;;1.50;;
826;SDS011;395;48.132;11.608;2023-02-04T15:48:58;1.88;;;1.27;;
826;SDS011;395;48.132;11.608;2023-02-04T15:51:24;1.30;;;1.20;;
826;SDS011;395;48.132;11.608;2023-02-04T15:53:50;1.57;;;1.47;;